Fairview Park, Ohio
Current Conditions -  °F | °C
As of 12:48 AM on Friday 28 Nov 2014 (Local Time) from KCLE Reporting Station
Light Snow Light Snow  
Wind Chill: 19°   Ceiling: 2700
Heat Index: 28°   Visibility: 2.5mi
Dew Point: 18°   Wind: 10mph
Humidity: 66%   Direction: 310°NW
Pressure: 30.29"   Gusts: NA
Location:  41.45°N, 81.85°W
Report Text: KCLE 280548Z 31009KT 2 1/2SM -SN BKN027 OVC042 M02/M08 A3029 RMK AO2 SNB42 SLP265 T10221078 11011 21028 51009 $
Loading
Personal Weather Stations






























Interactive Weather Map New forecast layout! Learn more

10-Day Weather Forecast

Advertisements
Track Severe Weather on mobile